Dura Bulk — 3ETF7 — position and weather

sailwx.info

Track history (hours):
 
Tides and Currents Weather Stations Pressure Air Temp Water Temp Dewpoint Dewpoint Depression Visibility Wind Speed Wind Dir Waves Ship Positions

Dura Bulk

Last reported at 2017-Sep-24 12:23 UTC. Time now 2017-Sep-25 01:04 UTC.
Position N 27°05' W 013°27'.

Length 89 m; draft 6.1 m.

Type: Cargo ship. MMSI: 370545000.

Date/timePositionNaut miles runAvg speedWind from/ knotsBaromVisibWave heightAir tempDewpointWater temp
2017-Sep-24 12:23N 27°05' W 013°27'0 0.0
2017-Sep-24 11:50N 27°05' W 013°27'0 0.0
2017-Sep-24 11:23N 27°05' W 013°27'0 0.0
2017-Sep-24 10:50N 27°05' W 013°27'0 0.0
2017-Sep-24 10:26N 27°05' W 013°27'0 0.0
2017-Sep-24 09:53N 27°05' W 013°27'0 0.0
2017-Sep-24 09:26N 27°05' W 013°27'0 0.0
2017-Sep-24 08:50N 27°05' W 013°27'0 0.0
2017-Sep-24 07:11N 27°05' W 013°27'0 0.0
2017-Sep-24 06:56N 27°05' W 013°27'  
2017-Sep-19 15:53N 32°17' W 009°19'40 1.5
2017-Sep-18 13:17N 31°49' W 009°53'205 8.8
2017-Sep-17 14:08N 29°07' W 012°18'14 7.5
2017-Sep-17 12:19N 28°56' W 012°28'2 7.2
2017-Sep-17 12:00N 28°54' W 012°29'4 7.8
2017-Sep-17 11:29N 28°51' W 012°32'4 7.7
2017-Sep-17 11:00N 28°48' W 012°34'4 7.9
2017-Sep-17 10:29N 28°45' W 012°37'4 7.9
2017-Sep-17 09:59N 28°42' W 012°40'4 8.0
2017-Sep-17 09:30N 28°39' W 012°43'4 8.0
2017-Sep-17 08:59N 28°35' W 012°45'4 7.7
2017-Sep-17 08:30N 28°32' W 012°48'11 7.9
2017-Sep-17 07:07N 28°23' W 012°55'2 7.8
2017-Sep-17 06:54N 28°22' W 012°56'3 7.7
2017-Sep-17 06:29N 28°19' W 012°59'4 8.1
2017-Sep-17 05:59N 28°16' W 013°01'4 7.9
2017-Sep-17 05:29N 28°13' W 013°04'4 8.0
2017-Sep-17 05:00N 28°10' W 013°07'5 8.1
2017-Sep-17 04:26N 28°06' W 013°10'5 7.7
2017-Sep-17 03:45N 28°02' W 013°13'2 8.1
2017-Sep-17 03:28N 28°00' W 013°15'4 8.0
2017-Sep-17 03:00N 27°57' W 013°17'4 7.9
2017-Sep-17 02:30N 27°54' W 013°20'4 8.1
2017-Sep-17 02:00N 27°51' W 013°23'4 8.2
2017-Sep-17 01:30N 27°48' W 013°26'10 8.3
2017-Sep-17 00:18N 27°38' W 013°27'3 8.9
2017-Sep-17 00:00N 27°35' W 013°27'4 8.6
2017-Sep-16 23:30N 27°31' W 013°27'4 8.9
2017-Sep-16 23:00N 27°26' W 013°27'4 8.9
2017-Sep-16 22:30N 27°22' W 013°27'5 9.1
2017-Sep-16 22:00N 27°17' W 013°27'5 9.2
2017-Sep-16 21:30N 27°13' W 013°27'5 9.5
2017-Sep-16 21:00N 27°08' W 013°27'3 0.7
2017-Sep-16 17:19N 27°05' W 013°26'0 0.0
2017-Sep-16 15:04N 27°05' W 013°26'0 0.0
2017-Sep-16 14:52N 27°05' W 013°26'0 0.0
2017-Sep-16 14:22N 27°05' W 013°26'0 0.0
2017-Sep-16 13:52N 27°05' W 013°26'0 0.0
2017-Sep-16 13:07N 27°05' W 013°26'0 0.0
2017-Sep-16 12:52N 27°05' W 013°26'0 0.0
2017-Sep-16 12:31N 27°05' W 013°26'0 0.0
2017-Sep-16 11:52N 27°05' W 013°26'0 0.1
2017-Sep-16 09:07N 27°05' W 013°26'2 3.8
2017-Sep-16 08:41N 27°06' W 013°28'0 0.0
2017-Sep-15 20:38N 27°06' W 013°28'0 0.0
2017-Sep-15 20:20N 27°06' W 013°28'0 0.0
2017-Sep-15 19:50N 27°06' W 013°28'0 0.0
2017-Sep-15 19:23N 27°06' W 013°28'0 0.0
2017-Sep-15 18:56N 27°06' W 013°28'0 0.0
2017-Sep-15 18:20N 27°06' W 013°28'1 2.6
2017-Sep-15 17:50N 27°07' W 013°27'1 4.3
2017-Sep-15 17:29N 27°09' W 013°28'6 6.9
2017-Sep-15 16:33N 27°15' W 013°27'11 8.1
2017-Sep-15 15:10N 27°26' W 013°27'10 8.3
2017-Sep-15 13:56N 27°36' W 013°27'4 8.5
2017-Sep-15 13:30N 27°40' W 013°27'4 8.8
2017-Sep-15 13:00N 27°45' W 013°27'4 7.1
2017-Sep-15 12:30N 27°47' W 013°24'4 8.4
2017-Sep-15 12:00N 27°49' W 013°20'8 8.5
2017-Sep-15 11:06N 27°53' W 013°13'1 8.2
2017-Sep-15 11:00N 27°53' W 013°12'4 8.3
2017-Sep-15 10:30N 27°55' W 013°08'4 7.9
2017-Sep-15 10:00N 27°58' W 013°04'5 9.3
2017-Sep-15 09:31N 28°01' W 013°00'5 9.1
2017-Sep-15 08:56N 28°04' W 012°56'4 9.1
2017-Sep-15 08:30N 28°07' W 012°53'6 8.9
2017-Sep-15 07:49N 28°12' W 012°48'3 8.9
2017-Sep-15 07:30N 28°14' W 012°46'4 8.7
2017-Sep-15 07:00N 28°17' W 012°43'5 8.5
2017-Sep-15 06:24N 28°20' W 012°38'3 8.7
2017-Sep-15 06:00N 28°22' W 012°35'4 8.6
2017-Sep-15 05:30N 28°25' W 012°31'4 8.6
2017-Sep-15 04:59N 28°28' W 012°27'7 8.5
2017-Sep-15 04:11N 28°32' W 012°21'2 8.4
2017-Sep-15 03:58N 28°33' W 012°20'4 8.3
2017-Sep-15 03:30N 28°35' W 012°16'17 8.5
2017-Sep-15 01:34N 28°46' W 012°01'0 8.5
2017-Sep-15 01:30N 28°46' W 012°01'5 8.6
2017-Sep-15 00:57N 28°49' W 011°57'6 8.9
2017-Sep-15 00:19N 28°53' W 011°52'4 9.4
2017-Sep-14 23:52N 28°55' W 011°48'3 9.1
2017-Sep-14 23:30N 28°57' W 011°45'57 8.9
2017-Sep-14 17:08N 29°32' W 010°54'  
Track history (hours):
 
Tides and Currents Weather Stations Pressure Air Temp Water Temp Dewpoint Dewpoint Depression Visibility Wind Speed Wind Dir Waves Ship Positions

Dura Bulk

Last reported at 2017-Sep-24 12:23 UTC. Time now 2017-Sep-25 01:04 UTC.
Position N 27°05' W 013°27'.

Length 89 m; draft 6.1 m.

Type: Cargo ship. MMSI: 370545000.

Date/timePositionNaut miles runAvg speedWind from/ knotsBaromVisibWave heightAir tempDewpointWater temp
2017-Sep-24 12:23N 27°05' W 013°27'0 0.0
2017-Sep-24 11:50N 27°05' W 013°27'0 0.0
2017-Sep-24 11:23N 27°05' W 013°27'0 0.0
2017-Sep-24 10:50N 27°05' W 013°27'0 0.0
2017-Sep-24 10:26N 27°05' W 013°27'0 0.0
2017-Sep-24 09:53N 27°05' W 013°27'0 0.0
2017-Sep-24 09:26N 27°05' W 013°27'0 0.0
2017-Sep-24 08:50N 27°05' W 013°27'0 0.0
2017-Sep-24 07:11N 27°05' W 013°27'0 0.0
2017-Sep-24 06:56N 27°05' W 013°27'  
2017-Sep-19 15:53N 32°17' W 009°19'40 1.5
2017-Sep-18 13:17N 31°49' W 009°53'205 8.8
2017-Sep-17 14:08N 29°07' W 012°18'14 7.5
2017-Sep-17 12:19N 28°56' W 012°28'2 7.2
2017-Sep-17 12:00N 28°54' W 012°29'4 7.8
2017-Sep-17 11:29N 28°51' W 012°32'4 7.7
2017-Sep-17 11:00N 28°48' W 012°34'4 7.9
2017-Sep-17 10:29N 28°45' W 012°37'4 7.9
2017-Sep-17 09:59N 28°42' W 012°40'4 8.0
2017-Sep-17 09:30N 28°39' W 012°43'4 8.0
2017-Sep-17 08:59N 28°35' W 012°45'4 7.7
2017-Sep-17 08:30N 28°32' W 012°48'11 7.9
2017-Sep-17 07:07N 28°23' W 012°55'2 7.8
2017-Sep-17 06:54N 28°22' W 012°56'3 7.7
2017-Sep-17 06:29N 28°19' W 012°59'4 8.1
2017-Sep-17 05:59N 28°16' W 013°01'4 7.9
2017-Sep-17 05:29N 28°13' W 013°04'4 8.0
2017-Sep-17 05:00N 28°10' W 013°07'5 8.1
2017-Sep-17 04:26N 28°06' W 013°10'5 7.7
2017-Sep-17 03:45N 28°02' W 013°13'2 8.1
2017-Sep-17 03:28N 28°00' W 013°15'4 8.0
2017-Sep-17 03:00N 27°57' W 013°17'4 7.9
2017-Sep-17 02:30N 27°54' W 013°20'4 8.1
2017-Sep-17 02:00N 27°51' W 013°23'4 8.2
2017-Sep-17 01:30N 27°48' W 013°26'10 8.3
2017-Sep-17 00:18N 27°38' W 013°27'3 8.9
2017-Sep-17 00:00N 27°35' W 013°27'4 8.6
2017-Sep-16 23:30N 27°31' W 013°27'4 8.9
2017-Sep-16 23:00N 27°26' W 013°27'4 8.9
2017-Sep-16 22:30N 27°22' W 013°27'5 9.1
2017-Sep-16 22:00N 27°17' W 013°27'5 9.2
2017-Sep-16 21:30N 27°13' W 013°27'5 9.5
2017-Sep-16 21:00N 27°08' W 013°27'3 0.7
2017-Sep-16 17:19N 27°05' W 013°26'0 0.0
2017-Sep-16 15:04N 27°05' W 013°26'0 0.0
2017-Sep-16 14:52N 27°05' W 013°26'0 0.0
2017-Sep-16 14:22N 27°05' W 013°26'0 0.0
2017-Sep-16 13:52N 27°05' W 013°26'0 0.0
2017-Sep-16 13:07N 27°05' W 013°26'0 0.0
2017-Sep-16 12:52N 27°05' W 013°26'0 0.0
2017-Sep-16 12:31N 27°05' W 013°26'0 0.0
2017-Sep-16 11:52N 27°05' W 013°26'0 0.1
2017-Sep-16 09:07N 27°05' W 013°26'2 3.8
2017-Sep-16 08:41N 27°06' W 013°28'0 0.0
2017-Sep-15 20:38N 27°06' W 013°28'0 0.0
2017-Sep-15 20:20N 27°06' W 013°28'0 0.0
2017-Sep-15 19:50N 27°06' W 013°28'0 0.0
2017-Sep-15 19:23N 27°06' W 013°28'0 0.0
2017-Sep-15 18:56N 27°06' W 013°28'0 0.0
2017-Sep-15 18:20N 27°06' W 013°28'1 2.6
2017-Sep-15 17:50N 27°07' W 013°27'1 4.3
2017-Sep-15 17:29N 27°09' W 013°28'6 6.9
2017-Sep-15 16:33N 27°15' W 013°27'11 8.1
2017-Sep-15 15:10N 27°26' W 013°27'10 8.3
2017-Sep-15 13:56N 27°36' W 013°27'4 8.5
2017-Sep-15 13:30N 27°40' W 013°27'4 8.8
2017-Sep-15 13:00N 27°45' W 013°27'4 7.1
2017-Sep-15 12:30N 27°47' W 013°24'4 8.4
2017-Sep-15 12:00N 27°49' W 013°20'8 8.5
2017-Sep-15 11:06N 27°53' W 013°13'1 8.2
2017-Sep-15 11:00N 27°53' W 013°12'4 8.3
2017-Sep-15 10:30N 27°55' W 013°08'4 7.9
2017-Sep-15 10:00N 27°58' W 013°04'5 9.3
2017-Sep-15 09:31N 28°01' W 013°00'5 9.1
2017-Sep-15 08:56N 28°04' W 012°56'4 9.1
2017-Sep-15 08:30N 28°07' W 012°53'6 8.9
2017-Sep-15 07:49N 28°12' W 012°48'3 8.9
2017-Sep-15 07:30N 28°14' W 012°46'4 8.7
2017-Sep-15 07:00N 28°17' W 012°43'5 8.5
2017-Sep-15 06:24N 28°20' W 012°38'3 8.7
2017-Sep-15 06:00N 28°22' W 012°35'4 8.6
2017-Sep-15 05:30N 28°25' W 012°31'4 8.6
2017-Sep-15 04:59N 28°28' W 012°27'7 8.5
2017-Sep-15 04:11N 28°32' W 012°21'2 8.4
2017-Sep-15 03:58N 28°33' W 012°20'4 8.3
2017-Sep-15 03:30N 28°35' W 012°16'17 8.5
2017-Sep-15 01:34N 28°46' W 012°01'0 8.5
2017-Sep-15 01:30N 28°46' W 012°01'5 8.6
2017-Sep-15 00:57N 28°49' W 011°57'6 8.9
2017-Sep-15 00:19N 28°53' W 011°52'4 9.4
2017-Sep-14 23:52N 28°55' W 011°48'3 9.1
2017-Sep-14 23:30N 28°57' W 011°45'57 8.9
2017-Sep-14 17:08N 29°32' W 010°54'  

Dump ship's entire track history